Vremea mâine în Horezu - Romania

Vrei sa afli care e starea vremii acum in Valcea - Romania? Dorim sa iti furnizam starea vremii pentru Valcea - Romania. Starea vremii Valcea - Romania pentru astazi.

Vremea mâine în Horezu

Temperatura minimă:
7.7 °C

Temperatura maximă:
23.9 °C

Mâine va fi: Patchy rain nearby
Precipitații: 81 %
Umiditate: 68%
Viteza maximă vânt mâine:
12.6 km/h

Evoluția vremii in Horezu pe ore mâine

Ora: 15:00
Temperatura: °C
Sansa de precipitatii: %
Ora Descriere Temp Se simte Precipitatii Umiditate Vant
00:00Senin9.7°9.1°0%84%NNE 6.5 KM/H
01:00Senin9.2°8.6°0%85%NNE 6.1 KM/H
02:00Senin8.8°8.1°0%86%NNE 6.1 KM/H
03:00Senin8.5°7.8°0%87%NNE 5.8 KM/H
04:00Senin8.1°7.3°0%88%NNE 6.1 KM/H
05:00Senin7.9°7.1°0%88%NNE 6.1 KM/H
06:00Senin7.7°0%88%NNE 5.8 KM/H
07:00Senin8.6°8.3°0%85%NNE 4.7 KM/H
08:00Senin14.5°14.5°0%75%NE 2.2 KM/H
09:00Senin17.1°17.1°0%66%SE 2.5 KM/H
10:00Senin19.2°19.2°0%60%SSE 4.7 KM/H
11:00Senin20.8°20.8°0%55%S 6.5 KM/H
12:00Senin21.9°21.9°0%51%SSW 8.6 KM/H
13:00Senin22.8°24.6°0%47%SSW 9.7 KM/H
14:00Senin23.5°24.7°0%44%SW 11.5 KM/H
15:00Senin23.8°24.8°0%42%SW 11.9 KM/H
16:00Senin23.9°24.8°0%41%SSW 11.2 KM/H
17:00Senin23.6°24.7°0%43%SW 12.6 KM/H
18:00Senin22.8°24.6°0%48%SW 10.8 KM/H
19:00Patchy rain nearby21.2°21.2°81%59%SW 7.6 KM/H
20:00Patchy rain nearby15.2°15.2°77%72%SW 4 KM/H
21:00Senin13.1°13.1°0%76%N 1.1 KM/H
22:00Senin12.2°12.4°0%79%NNE 4.3 KM/H
23:00Patchy rain nearby11.2°11.3°100%83%NE 4.7 KM/H




tutorials